createdAt,value
2018-10-07T00:01:13.224Z,7.47
2018-10-07T00:03:41.450Z,7.60
2018-10-07T00:06:09.726Z,7.47
2018-10-07T00:08:39.370Z,8.23
2018-10-07T00:11:07.640Z,8.20
2018-10-07T00:13:35.977Z,8.83
2018-10-07T00:16:04.537Z,9.90
2018-10-07T00:18:32.774Z,10.57
2018-10-07T00:21:01.043Z,10.47
2018-10-07T00:23:29.273Z,10.60
2018-10-07T00:25:57.554Z,11.03
2018-10-07T00:28:25.762Z,11.20
2018-10-07T00:30:54.065Z,12.03
2018-10-07T00:33:22.384Z,13.37
2018-10-07T00:35:50.706Z,12.93
2018-10-07T00:38:18.994Z,14.27
2018-10-07T00:40:47.267Z,15.87
2018-10-07T00:43:15.569Z,17.20
2018-10-07T00:45:44.838Z,19.97
2018-10-07T00:48:13.223Z,21.20
2018-10-07T00:50:41.529Z,23.27
2018-10-07T00:53:09.792Z,22.60
2018-10-07T00:55:38.084Z,22.37
2018-10-07T00:58:06.334Z,23.53
2018-10-07T01:00:35.047Z,24.07
2018-10-07T01:03:03.301Z,26.30
2018-10-07T01:05:31.541Z,25.80
2018-10-07T01:07:59.843Z,26.30
2018-10-07T01:10:28.114Z,28.23
2018-10-07T01:12:56.349Z,29.20
2018-10-07T01:15:24.586Z,30.27
2018-10-07T01:17:52.817Z,31.50
2018-10-07T01:20:21.119Z,32.43
2018-10-07T01:22:49.526Z,36.53
2018-10-07T01:25:17.886Z,41.73
2018-10-07T01:27:46.175Z,44.87
2018-10-07T01:30:14.432Z,45.27
2018-10-07T01:32:42.709Z,45.23
2018-10-07T01:35:11.051Z,46.10
2018-10-07T01:37:39.282Z,55.13
2018-10-07T01:40:07.574Z,47.80
2018-10-07T01:42:35.828Z,48.37
2018-10-07T01:45:04.104Z,46.87
2018-10-07T01:47:32.374Z,48.17
2018-10-07T01:50:00.612Z,45.37
2018-10-07T01:52:28.819Z,47.87
2018-10-07T01:54:57.095Z,49.80
2018-10-07T01:57:25.362Z,51.03
2018-10-07T01:59:53.593Z,51.07
2018-10-07T02:02:21.838Z,61.13
2018-10-07T02:04:50.140Z,56.33
2018-10-07T02:07:18.395Z,56.00
2018-10-07T02:09:46.655Z,53.80
2018-10-07T02:12:14.870Z,57.63
2018-10-07T02:14:43.111Z,54.90
2018-10-07T02:17:12.348Z,55.97
2018-10-07T02:19:40.565Z,53.57
2018-10-07T02:22:08.821Z,51.83
2018-10-07T02:24:37.162Z,52.43
2018-10-07T02:27:05.415Z,51.43
2018-10-07T02:29:33.677Z,52.03
2018-10-07T02:32:01.930Z,52.37
2018-10-07T02:34:30.174Z,51.37
2018-10-07T02:36:58.402Z,50.03
2018-10-07T02:39:26.680Z,50.63
2018-10-07T02:41:54.891Z,53.03
2018-10-07T02:44:23.130Z,51.07
2018-10-07T02:46:51.350Z,52.07
2018-10-07T02:49:19.678Z,50.00
2018-10-07T02:51:48.082Z,52.73
2018-10-07T02:54:16.364Z,53.33
2018-10-07T02:56:44.695Z,51.50
2018-10-07T02:59:14.419Z,54.23
2018-10-07T03:01:42.863Z,54.70
2018-10-07T03:04:11.192Z,56.60
2018-10-07T03:06:39.403Z,55.07
2018-10-07T03:09:08.757Z,54.70
2018-10-07T03:11:36.988Z,54.40
2018-10-07T03:14:05.238Z,55.60
2018-10-07T03:16:33.518Z,56.33
2018-10-07T03:19:01.780Z,58.17
2018-10-07T03:21:30.158Z,54.40
2018-10-07T03:23:58.393Z,58.57
2018-10-07T03:26:26.634Z,56.90
2018-10-07T03:28:54.895Z,56.13
2018-10-07T03:31:23.169Z,55.00
2018-10-07T03:33:51.442Z,58.57
2018-10-07T03:36:19.678Z,58.23
2018-10-07T03:38:47.918Z,56.93
2018-10-07T03:41:16.194Z,59.03
2018-10-07T03:43:44.431Z,57.57
2018-10-07T03:46:12.732Z,56.33
2018-10-07T03:48:40.973Z,55.43
2018-10-07T03:51:09.199Z,54.43
2018-10-07T03:53:37.455Z,56.90
2018-10-07T03:56:05.810Z,55.03
2018-10-07T03:58:34.056Z,53.80
2018-10-07T04:01:02.334Z,54.60
2018-10-07T04:03:30.621Z,54.43
2018-10-07T04:05:58.852Z,53.23
2018-10-07T04:08:27.092Z,53.77
2018-10-07T04:10:55.359Z,52.60
2018-10-07T04:13:23.635Z,51.93
2018-10-07T04:15:51.986Z,53.50
2018-10-07T04:18:20.241Z,53.90
2018-10-07T04:20:55.274Z,51.93
2018-10-07T04:23:23.518Z,51.00
2018-10-07T04:25:51.803Z,50.70
2018-10-07T04:28:20.046Z,50.30
2018-10-07T04:30:48.299Z,47.60
2018-10-07T04:33:16.553Z,50.57
2018-10-07T04:35:44.809Z,49.83
2018-10-07T04:38:13.227Z,50.00
2018-10-07T04:40:41.479Z,49.87
2018-10-07T04:43:09.694Z,49.87
2018-10-07T04:45:38.047Z,51.03
2018-10-07T04:48:06.414Z,51.57
2018-10-07T04:50:34.707Z,51.17
2018-10-07T04:53:02.978Z,50.23
2018-10-07T04:55:31.298Z,49.13
2018-10-07T04:57:59.673Z,46.97
2018-10-07T05:00:27.959Z,46.53
2018-10-07T05:02:56.199Z,46.73
2018-10-07T05:05:24.799Z,44.40
2018-10-07T05:07:53.108Z,43.70
2018-10-07T05:10:45.478Z,44.63
2018-10-07T05:13:15.536Z,43.53
2018-10-07T05:15:44.237Z,42.77
2018-10-07T05:18:12.549Z,43.17
2018-10-07T05:20:41.085Z,36.73
2018-10-07T05:23:09.370Z,35.50
2018-10-07T05:25:37.628Z,30.43
2018-10-07T05:28:05.886Z,27.03
2018-10-07T05:30:34.159Z,24.50
2018-10-07T05:33:02.804Z,22.57
2018-10-07T05:35:31.029Z,20.10
2018-10-07T05:37:59.307Z,18.67
2018-10-07T05:40:27.572Z,17.57
2018-10-07T05:42:55.854Z,16.27
2018-10-07T05:45:24.149Z,15.30
2018-10-07T05:47:52.516Z,15.73
2018-10-07T05:50:20.733Z,13.73
2018-10-07T05:52:48.992Z,13.70
2018-10-07T05:55:17.234Z,12.73
2018-10-07T05:57:45.782Z,11.47
2018-10-07T06:00:15.641Z,10.30
2018-10-07T06:02:45.881Z,10.90
2018-10-07T06:05:14.615Z,10.67
2018-10-07T06:07:43.100Z,9.00
2018-10-07T06:10:11.440Z,8.97
2018-10-07T06:12:39.817Z,8.67
2018-10-07T06:15:23.526Z,8.60
2018-10-07T06:17:51.855Z,8.40
2018-10-07T06:20:20.167Z,8.03
2018-10-07T06:22:48.407Z,8.17
2018-10-07T06:25:16.710Z,7.33
2018-10-07T06:27:44.980Z,8.30
2018-10-07T06:30:13.308Z,7.97
2018-10-07T06:32:41.539Z,8.00
2018-10-07T06:35:09.887Z,7.23
2018-10-07T06:37:41.174Z,7.70
2018-10-07T06:40:09.407Z,7.77
2018-10-07T06:42:37.670Z,7.13
2018-10-07T06:45:05.952Z,7.27
2018-10-07T06:47:34.158Z,6.93
2018-10-07T06:50:03.522Z,7.07
2018-10-07T06:52:31.830Z,7.67
2018-10-07T06:55:00.315Z,8.60
2018-10-07T06:57:29.958Z,8.03
2018-10-07T06:59:58.363Z,9.13
2018-10-07T07:02:26.641Z,8.83
2018-10-07T07:04:55.198Z,8.87
2018-10-07T07:07:23.781Z,9.30
2018-10-07T07:09:52.208Z,10.57
2018-10-07T07:12:20.425Z,11.23
2018-10-07T07:14:48.642Z,10.83
2018-10-07T07:17:16.896Z,12.00
2018-10-07T07:19:45.768Z,11.90
2018-10-07T07:22:13.983Z,11.60
2018-10-07T07:24:42.239Z,10.80
2018-10-07T07:27:10.495Z,11.10
2018-10-07T07:29:39.569Z,10.53
2018-10-07T07:32:07.862Z,9.90
2018-10-07T07:34:36.121Z,9.77
2018-10-07T07:37:05.136Z,10.47
2018-10-07T07:39:33.363Z,11.53
2018-10-07T07:42:01.707Z,11.43
2018-10-07T07:44:29.952Z,11.40
2018-10-07T07:46:58.172Z,9.73
2018-10-07T07:49:26.382Z,9.33
2018-10-07T07:51:54.594Z,9.07
2018-10-07T07:54:22.887Z,7.63
2018-10-07T07:56:51.136Z,7.83
2018-10-07T07:59:19.463Z,7.20
2018-10-07T08:01:47.778Z,7.40
2018-10-07T08:04:16.137Z,7.03
2018-10-07T08:06:44.434Z,6.77
2018-10-07T08:09:12.673Z,7.93
2018-10-07T08:11:41.128Z,8.17
2018-10-07T08:14:09.351Z,8.07
2018-10-07T08:16:37.760Z,8.70
2018-10-07T08:19:06.026Z,8.73
2018-10-07T08:21:35.167Z,9.27
2018-10-07T08:24:03.392Z,9.67
2018-10-07T08:26:31.619Z,9.37
2018-10-07T08:28:59.866Z,9.27
2018-10-07T08:31:28.186Z,10.23
2018-10-07T08:33:56.400Z,8.57
2018-10-07T08:36:24.690Z,8.83
2018-10-07T08:38:52.946Z,9.10
2018-10-07T08:41:21.179Z,8.93
2018-10-07T08:43:50.238Z,7.73
2018-10-07T08:46:18.496Z,7.40
2018-10-07T08:48:46.779Z,7.70
2018-10-07T08:51:15.068Z,8.23
2018-10-07T08:53:43.334Z,7.53
2018-10-07T08:56:11.736Z,7.20
2018-10-07T08:58:39.942Z,6.90
2018-10-07T09:01:08.163Z,6.30
2018-10-07T09:03:36.414Z,5.23
2018-10-07T09:06:04.757Z,4.70
2018-10-07T09:08:33.576Z,4.50
2018-10-07T09:11:01.775Z,3.80
2018-10-07T09:13:30.001Z,2.80
2018-10-07T09:15:58.223Z,3.30
2018-10-07T09:18:26.462Z,3.30
2018-10-07T09:20:54.755Z,2.93
2018-10-07T09:23:23.235Z,2.20
2018-10-07T09:25:51.632Z,2.30
2018-10-07T09:28:19.914Z,2.27
2018-10-07T09:30:48.130Z,2.40
2018-10-07T09:33:16.311Z,2.33
2018-10-07T09:35:44.498Z,2.60
2018-10-07T09:38:12.839Z,2.27
2018-10-07T09:40:41.087Z,2.20
2018-10-07T09:43:09.317Z,2.63
2018-10-07T09:45:37.566Z,2.30
2018-10-07T09:48:05.925Z,2.00
2018-10-07T09:50:34.172Z,2.60
2018-10-07T09:53:02.369Z,2.27
2018-10-07T09:55:31.002Z,2.40
2018-10-07T09:57:59.288Z,2.10
2018-10-07T10:00:42.113Z,2.13
2018-10-07T10:03:11.561Z,2.23
2018-10-07T10:05:39.877Z,2.03
2018-10-07T10:08:08.623Z,2.20
2018-10-07T10:10:36.857Z,2.40
2018-10-07T10:13:05.272Z,2.40
2018-10-07T10:15:33.469Z,2.60
2018-10-07T10:18:03.154Z,2.23
2018-10-07T10:21:38.436Z,2.33
2018-10-07T10:24:20.330Z,2.37
2018-10-07T10:27:05.501Z,2.30
2018-10-07T10:29:37.798Z,2.17
2018-10-07T10:32:11.483Z,2.00
2018-10-07T10:34:48.457Z,2.23
2018-10-07T10:44:54.161Z,2.27
2018-10-07T10:47:30.155Z,1.80
2018-10-07T10:50:11.520Z,2.27
2018-10-07T10:53:46.987Z,2.37
2018-10-07T10:56:30.894Z,1.97
2018-10-07T11:01:15.443Z,1.93
2018-10-07T11:03:50.632Z,2.07
2018-10-07T11:06:25.341Z,2.30
2018-10-07T11:10:04.355Z,2.20
2018-10-07T11:12:43.434Z,2.33
2018-10-07T11:15:34.317Z,2.10
2018-10-07T11:18:26.271Z,2.33
2018-10-07T11:21:10.456Z,2.23
2018-10-07T11:24:14.844Z,2.03
2018-10-07T11:26:51.543Z,1.90
2018-10-07T11:29:31.178Z,2.00
2018-10-07T11:34:13.708Z,2.10
2018-10-07T11:37:24.951Z,1.60
2018-10-07T11:41:04.835Z,1.70
2018-10-07T11:43:40.048Z,1.50
2018-10-07T11:46:13.610Z,1.87
2018-10-07T11:48:47.950Z,1.50
2018-10-07T11:52:36.401Z,1.40
2018-10-07T11:55:05.084Z,1.60
2018-10-07T11:57:33.403Z,1.30
2018-10-07T12:00:02.033Z,1.30
2018-10-07T12:02:30.371Z,1.10
2018-10-07T12:04:59.283Z,1.17
2018-10-07T12:07:30.479Z,1.10
2018-10-07T12:09:58.703Z,1.40
2018-10-07T12:12:27.397Z,1.30
2018-10-07T12:14:55.717Z,1.20
2018-10-07T12:17:24.010Z,1.27
2018-10-07T12:19:52.254Z,1.10
2018-10-07T12:22:20.538Z,1.30
2018-10-07T12:24:49.244Z,1.30
2018-10-07T12:27:17.545Z,1.10
2018-10-07T12:29:45.780Z,1.33
2018-10-07T12:32:13.985Z,0.90
2018-10-07T12:34:42.243Z,1.40
2018-10-07T12:37:10.481Z,1.00
2018-10-07T12:39:39.499Z,1.00
2018-10-07T12:42:16.283Z,1.20
2018-10-07T12:44:44.593Z,1.37
2018-10-07T12:47:18.223Z,1.20
2018-10-07T12:49:46.664Z,1.07
2018-10-07T12:52:15.702Z,1.13
2018-10-07T12:54:44.025Z,1.20
2018-10-07T12:57:12.494Z,1.03
2018-10-07T12:59:41.032Z,1.00
2018-10-07T13:02:09.657Z,1.00
2018-10-07T13:04:37.926Z,1.20
2018-10-07T13:07:06.280Z,1.40
2018-10-07T13:09:34.946Z,1.10
2018-10-07T13:12:03.122Z,1.30
2018-10-07T13:14:31.511Z,1.40
2018-10-07T13:16:59.802Z,1.00
2018-10-07T13:19:28.081Z,1.10
2018-10-07T13:21:56.380Z,1.00
2018-10-07T13:24:25.021Z,1.10
2018-10-07T13:26:53.380Z,1.30
2018-10-07T13:29:21.710Z,1.00
2018-10-07T13:31:49.959Z,0.97
2018-10-07T13:34:18.442Z,1.10
2018-10-07T13:36:47.421Z,1.10
2018-10-07T13:39:15.642Z,1.00
2018-10-07T13:41:43.874Z,1.17
2018-10-07T13:44:12.253Z,1.30
2018-10-07T13:46:40.723Z,1.30
2018-10-07T13:49:09.050Z,1.47
2018-10-07T13:51:37.542Z,1.47
2018-10-07T13:54:06.079Z,1.03
2018-10-07T13:56:41.107Z,0.93
2018-10-07T13:59:09.449Z,1.10
2018-10-07T14:01:39.006Z,1.10
2018-10-07T14:04:07.697Z,0.90
2018-10-07T14:06:36.014Z,0.90
2018-10-07T14:09:05.926Z,0.80
2018-10-07T14:11:34.178Z,0.90
2018-10-07T14:14:02.682Z,0.90
2018-10-07T14:16:31.700Z,1.10
2018-10-07T14:19:00.354Z,1.00
2018-10-07T14:21:28.649Z,1.00
2018-10-07T14:23:57.032Z,0.90
2018-10-07T14:26:25.280Z,1.00
2018-10-07T14:28:53.544Z,0.83
2018-10-07T14:31:22.112Z,1.00
2018-10-07T14:33:51.395Z,0.97
2018-10-07T14:36:19.744Z,1.10
2018-10-07T14:38:48.083Z,0.90
2018-10-07T14:41:16.527Z,1.03
2018-10-07T14:43:45.308Z,1.00
2018-10-07T14:46:13.815Z,1.00
2018-10-07T14:48:42.404Z,1.00
2018-10-07T14:51:10.682Z,0.90
2018-10-07T14:53:38.989Z,1.10
2018-10-07T14:56:07.298Z,1.07
2018-10-07T14:58:35.952Z,0.97
2018-10-07T15:01:04.489Z,1.20
2018-10-07T15:03:32.811Z,0.80
2018-10-07T15:06:01.312Z,1.07
2018-10-07T15:08:29.564Z,1.07
2018-10-07T15:10:57.800Z,1.30
2018-10-07T15:13:26.134Z,1.20
2018-10-07T15:15:54.414Z,1.10
2018-10-07T15:18:22.787Z,1.07
2018-10-07T15:20:51.274Z,1.30
2018-10-07T15:23:19.520Z,1.20
2018-10-07T15:28:29.449Z,0.90
2018-10-07T15:30:57.818Z,1.00
2018-10-07T15:33:26.153Z,1.37
2018-10-07T15:35:54.525Z,1.10
2018-10-07T15:38:22.730Z,1.20
2018-10-07T15:40:51.016Z,0.90
2018-10-07T15:43:19.359Z,0.90
2018-10-07T15:45:48.290Z,1.10
2018-10-07T15:48:16.566Z,0.93
2018-10-07T15:50:44.873Z,0.90
2018-10-07T15:53:13.138Z,1.17
2018-10-07T15:55:42.331Z,1.23
2018-10-07T15:58:10.613Z,1.00
2018-10-07T16:00:38.878Z,1.33
2018-10-07T16:03:07.538Z,1.40
2018-10-07T16:05:35.813Z,1.60
2018-10-07T16:08:04.503Z,1.50
2018-10-07T16:10:32.714Z,1.50
2018-10-07T16:13:01.023Z,1.60
2018-10-07T16:15:29.374Z,1.23
2018-10-07T16:17:57.642Z,1.70
2018-10-07T16:20:26.763Z,1.50
2018-10-07T16:22:55.326Z,1.53
2018-10-07T16:25:23.683Z,1.60
2018-10-07T16:27:52.170Z,1.40
2018-10-07T16:30:20.421Z,1.43
2018-10-07T16:32:48.757Z,1.93
2018-10-07T16:35:18.343Z,1.80
2018-10-07T16:37:46.754Z,1.40
2018-10-07T16:40:15.412Z,1.50
2018-10-07T16:42:43.709Z,1.50
2018-10-07T16:45:12.103Z,1.40
2018-10-07T16:47:40.450Z,1.40
2018-10-07T16:50:08.696Z,1.40
2018-10-07T16:52:37.063Z,1.50
2018-10-07T16:55:06.862Z,1.70
2018-10-07T16:57:35.087Z,1.60
2018-10-07T17:00:03.383Z,1.60
2018-10-07T17:02:31.622Z,1.80
2018-10-07T17:05:00.612Z,2.43
2018-10-07T17:07:28.878Z,1.20
2018-10-07T17:09:57.217Z,2.03
2018-10-07T17:12:25.765Z,1.60
2018-10-07T17:14:54.082Z,1.53
2018-10-07T17:17:23.694Z,1.80
2018-10-07T17:19:51.965Z,2.20
2018-10-07T17:22:20.210Z,1.60
2018-10-07T17:24:49.431Z,1.37
2018-10-07T17:27:17.831Z,1.57
2018-10-07T17:29:46.106Z,2.23
2018-10-07T17:32:14.390Z,1.37
2018-10-07T17:34:42.602Z,1.50
2018-10-07T17:37:10.852Z,1.73
2018-10-07T17:39:39.094Z,2.13
2018-10-07T17:42:07.589Z,2.20
2018-10-07T17:44:35.952Z,2.13
2018-10-07T17:47:04.218Z,3.20
2018-10-07T17:49:32.491Z,2.57
2018-10-07T17:52:01.132Z,1.67
2018-10-07T17:54:29.583Z,1.37
2018-10-07T17:56:57.883Z,2.10
2018-10-07T17:59:26.440Z,3.90
2018-10-07T18:01:54.647Z,2.60
2018-10-07T18:04:22.876Z,2.20
2018-10-07T18:06:51.167Z,2.10
2018-10-07T18:09:19.566Z,2.10
2018-10-07T18:11:48.414Z,2.73
2018-10-07T18:14:16.872Z,2.10
2018-10-07T18:16:45.520Z,2.10
2018-10-07T18:19:13.782Z,2.10
2018-10-07T18:21:42.035Z,2.27
2018-10-07T18:24:10.273Z,1.97
2018-10-07T18:26:38.608Z,1.40
2018-10-07T18:29:06.928Z,1.73
2018-10-07T18:34:14.531Z,1.80
2018-10-07T18:36:42.674Z,2.20
2018-10-07T18:39:10.947Z,2.27
2018-10-07T18:41:39.828Z,1.90
2018-10-07T18:44:08.273Z,1.80
2018-10-07T18:46:37.212Z,2.17
2018-10-07T18:49:05.720Z,2.70
2018-10-07T18:51:34.353Z,2.80
2018-10-07T18:54:03.290Z,2.50
2018-10-07T18:56:32.596Z,2.50
2018-10-07T18:59:01.096Z,2.10
2018-10-07T19:01:30.327Z,2.30
2018-10-07T19:03:59.426Z,2.20
2018-10-07T19:06:28.438Z,2.00
2018-10-07T19:08:57.015Z,2.20
2018-10-07T19:11:25.851Z,2.40
2018-10-07T19:13:54.140Z,1.63
2018-10-07T19:16:22.598Z,1.93
2018-10-07T19:18:50.902Z,1.80
2018-10-07T19:21:19.231Z,2.20
2018-10-07T19:23:47.483Z,2.00
2018-10-07T19:26:15.702Z,1.63
2018-10-07T19:28:44.092Z,1.80
2018-10-07T19:31:13.052Z,2.20
2018-10-07T19:33:43.476Z,1.77
2018-10-07T19:36:11.875Z,1.90
2018-10-07T19:38:40.227Z,1.80
2018-10-07T19:41:09.047Z,1.80
2018-10-07T19:43:37.354Z,2.10
2018-10-07T19:46:05.668Z,2.13
2018-10-07T19:48:34.794Z,2.07
2018-10-07T19:51:03.082Z,2.30
2018-10-07T19:53:31.441Z,1.90
2018-10-07T19:55:59.836Z,2.27
2018-10-07T19:58:28.119Z,3.50
2018-10-07T20:00:56.594Z,2.60
2018-10-07T20:03:24.979Z,2.10
2018-10-07T20:05:53.279Z,2.80
2018-10-07T20:08:21.686Z,2.03
2018-10-07T20:10:51.738Z,1.90
2018-10-07T20:13:20.391Z,2.17
2018-10-07T20:15:49.009Z,2.10
2018-10-07T20:18:18.327Z,2.00
2018-10-07T20:20:47.065Z,2.00
2018-10-07T20:23:16.792Z,2.17
2018-10-07T20:25:47.134Z,2.37
2018-10-07T20:28:15.531Z,2.40
2018-10-07T20:30:43.990Z,1.87
2018-10-07T20:33:12.877Z,2.10
2018-10-07T20:35:41.289Z,1.90
2018-10-07T20:38:10.803Z,2.60
2018-10-07T20:40:39.257Z,2.80
2018-10-07T20:43:07.426Z,1.70
2018-10-07T20:45:35.731Z,1.80
2018-10-07T20:48:05.267Z,2.23
2018-10-07T20:50:33.594Z,2.30
2018-10-07T20:53:01.915Z,2.57
2018-10-07T20:55:31.427Z,2.33
2018-10-07T20:57:59.700Z,2.70
2018-10-07T21:00:32.014Z,2.17
2018-10-07T21:03:02.069Z,2.00
2018-10-07T21:05:33.865Z,2.27
2018-10-07T21:08:07.983Z,2.23
2018-10-07T21:10:37.171Z,2.50
2018-10-07T21:13:05.465Z,2.00
2018-10-07T21:15:33.764Z,2.20
2018-10-07T21:18:06.078Z,3.20
2018-10-07T21:20:35.532Z,2.90
2018-10-07T21:23:04.057Z,2.63
2018-10-07T21:25:32.483Z,3.37
2018-10-07T21:28:01.016Z,4.07
2018-10-07T21:30:29.514Z,6.40
2018-10-07T21:32:58.547Z,5.27
2018-10-07T21:35:26.908Z,4.13
2018-10-07T21:37:55.444Z,3.70
2018-10-07T21:40:23.883Z,3.67
2018-10-07T21:42:52.301Z,2.97
2018-10-07T21:45:21.363Z,3.40
2018-10-07T21:47:49.811Z,3.17
2018-10-07T21:50:18.237Z,3.37
2018-10-07T21:52:47.506Z,3.33
2018-10-07T21:55:15.879Z,3.00
2018-10-07T21:57:44.154Z,2.90
2018-10-07T22:00:12.585Z,3.17
2018-10-07T22:02:40.855Z,3.37
2018-10-07T22:05:09.155Z,3.53
2018-10-07T22:07:37.383Z,3.73
2018-10-07T22:10:05.683Z,3.50
2018-10-07T22:12:34.136Z,3.37
2018-10-07T22:15:04.776Z,3.70
2018-10-07T22:17:33.049Z,3.30
2018-10-07T22:20:02.438Z,2.90
2018-10-07T22:22:32.392Z,3.20
2018-10-07T22:25:00.700Z,3.03
2018-10-07T22:27:28.919Z,4.23
2018-10-07T22:29:57.230Z,3.87
2018-10-07T22:32:25.833Z,3.47
2018-10-07T22:34:54.078Z,3.07
2018-10-07T22:37:22.333Z,3.97
2018-10-07T22:39:50.608Z,3.30
2018-10-07T22:42:18.911Z,3.30
2018-10-07T22:44:47.481Z,3.40
2018-10-07T22:47:15.869Z,3.00
2018-10-07T22:49:45.126Z,3.07
2018-10-07T22:52:13.395Z,3.40
2018-10-07T22:54:41.911Z,2.80
2018-10-07T22:57:10.145Z,2.80
2018-10-07T22:59:40.070Z,3.07
2018-10-07T23:02:09.049Z,3.03
2018-10-07T23:04:37.333Z,2.77
2018-10-07T23:07:05.832Z,3.70
2018-10-07T23:09:34.068Z,2.80
2018-10-07T23:12:02.283Z,2.47
2018-10-07T23:14:30.494Z,3.00
2018-10-07T23:16:59.658Z,3.00
2018-10-07T23:19:27.890Z,3.20
2018-10-07T23:21:56.109Z,2.57
2018-10-07T23:24:24.366Z,3.00
2018-10-07T23:26:52.606Z,3.00
2018-10-07T23:29:20.874Z,2.97
2018-10-07T23:31:49.066Z,2.57
2018-10-07T23:34:17.318Z,2.93
2018-10-07T23:36:45.514Z,3.23
2018-10-07T23:39:14.159Z,2.90
2018-10-07T23:41:42.628Z,3.07
2018-10-07T23:44:10.871Z,3.10
2018-10-07T23:46:39.393Z,2.90
2018-10-07T23:49:07.879Z,3.20
2018-10-07T23:51:36.202Z,2.70
2018-10-07T23:54:04.629Z,2.50
2018-10-07T23:56:32.858Z,2.30
2018-10-07T23:59:01.136Z,2.67
